createdAt,value
2017-08-18T00:00:21.301Z,0
2017-08-18T00:01:21.241Z,0
2017-08-18T00:02:21.304Z,0
2017-08-18T00:03:21.301Z,0
2017-08-18T00:04:21.303Z,0
2017-08-18T00:05:21.302Z,0
2017-08-18T00:06:21.269Z,0
2017-08-18T00:07:21.245Z,0
2017-08-18T00:08:21.250Z,0
2017-08-18T00:09:21.270Z,0
2017-08-18T00:10:21.274Z,0
2017-08-18T00:11:21.247Z,0
2017-08-18T00:12:21.277Z,0
2017-08-18T00:13:21.244Z,0
2017-08-18T00:14:21.275Z,0
2017-08-18T00:15:21.277Z,0
2017-08-18T00:16:21.253Z,0
2017-08-18T00:17:21.260Z,0
2017-08-18T00:18:21.355Z,0
2017-08-18T00:19:21.257Z,0
2017-08-18T00:20:21.351Z,0
2017-08-18T00:21:21.311Z,0
2017-08-18T00:22:21.263Z,0
2017-08-18T00:23:21.346Z,0
2017-08-18T00:24:21.324Z,0
2017-08-18T00:25:21.262Z,0
2017-08-18T00:26:21.287Z,0
2017-08-18T00:27:21.326Z,0
2017-08-18T00:28:21.291Z,0
2017-08-18T00:29:21.282Z,0
2017-08-18T00:30:21.285Z,0
2017-08-18T00:31:21.269Z,0
2017-08-18T00:32:21.288Z,0
2017-08-18T00:33:21.245Z,0
2017-08-18T00:34:21.264Z,0
2017-08-18T00:35:21.266Z,0
2017-08-18T00:36:21.275Z,0
2017-08-18T00:37:21.310Z,0
2017-08-18T00:38:21.266Z,0
2017-08-18T00:39:21.303Z,0
2017-08-18T00:40:21.273Z,0
2017-08-18T00:41:21.270Z,0
2017-08-18T00:42:21.269Z,0
2017-08-18T00:43:21.323Z,0
2017-08-18T00:44:21.340Z,0
2017-08-18T00:45:21.298Z,0
2017-08-18T00:46:21.179Z,0
2017-08-18T00:47:21.173Z,0
2017-08-18T00:48:21.265Z,0
2017-08-18T00:49:21.206Z,0
2017-08-18T00:50:21.274Z,0
2017-08-18T00:51:21.169Z,0
2017-08-18T00:52:21.176Z,0
2017-08-18T00:53:21.243Z,0
2017-08-18T00:54:21.172Z,0
2017-08-18T00:55:21.266Z,0
2017-08-18T00:56:21.338Z,0
2017-08-18T00:57:21.269Z,0
2017-08-18T00:58:21.303Z,0
2017-08-18T00:59:21.302Z,0
2017-08-18T01:00:21.306Z,0
2017-08-18T01:01:21.341Z,0
2017-08-18T01:02:21.276Z,0
2017-08-18T01:03:21.276Z,0
2017-08-18T01:04:21.338Z,0
2017-08-18T01:05:21.280Z,0
2017-08-18T01:06:21.276Z,0
2017-08-18T01:07:21.267Z,0
2017-08-18T01:08:21.267Z,0
2017-08-18T01:09:21.221Z,0
2017-08-18T01:10:21.303Z,0
2017-08-18T01:11:21.285Z,0
2017-08-18T01:12:21.338Z,0
2017-08-18T01:13:21.273Z,0
2017-08-18T01:14:21.223Z,0
2017-08-18T01:15:21.221Z,0
2017-08-18T01:16:21.295Z,0
2017-08-18T01:17:21.356Z,0
2017-08-18T01:18:21.384Z,0
2017-08-18T01:19:21.389Z,0
2017-08-18T01:20:21.320Z,0
2017-08-18T01:21:21.384Z,0
2017-08-18T01:22:21.359Z,0
2017-08-18T01:23:21.390Z,0
2017-08-18T01:24:21.384Z,0
2017-08-18T01:25:21.319Z,0
2017-08-18T01:26:21.364Z,0
2017-08-18T01:27:21.302Z,0
2017-08-18T01:28:21.388Z,0
2017-08-18T01:29:21.363Z,0
2017-08-18T01:30:21.320Z,0
2017-08-18T01:31:21.388Z,0
2017-08-18T01:32:21.298Z,0
2017-08-18T01:33:21.334Z,0
2017-08-18T01:34:21.329Z,0
2017-08-18T01:35:21.327Z,0
2017-08-18T01:36:21.390Z,0
2017-08-18T01:37:21.359Z,0
2017-08-18T01:38:21.327Z,0
2017-08-18T01:39:21.365Z,0
2017-08-18T01:40:21.358Z,0
2017-08-18T01:41:21.329Z,0
2017-08-18T01:42:21.362Z,0
2017-08-18T01:43:21.330Z,0
2017-08-18T01:44:21.359Z,0
2017-08-18T01:45:21.359Z,0
2017-08-18T01:46:21.495Z,0
2017-08-18T01:47:21.361Z,0
2017-08-18T01:48:21.363Z,0
2017-08-18T01:49:21.367Z,0
2017-08-18T01:50:21.307Z,0
2017-08-18T01:51:21.366Z,0
2017-08-18T01:52:21.309Z,0
2017-08-18T01:53:21.337Z,0
2017-08-18T01:54:21.337Z,0
2017-08-18T01:55:21.393Z,0
2017-08-18T01:56:21.369Z,0
2017-08-18T01:57:21.350Z,0
2017-08-18T01:58:21.317Z,0
2017-08-18T01:59:21.315Z,0
2017-08-18T02:00:21.352Z,0
2017-08-18T02:01:21.390Z,0
2017-08-18T02:02:21.317Z,0
2017-08-18T02:03:21.320Z,0
2017-08-18T02:04:21.417Z,0
2017-08-18T02:05:21.355Z,0
2017-08-18T02:06:21.396Z,0
2017-08-18T02:07:21.349Z,0
2017-08-18T02:08:21.298Z,0
2017-08-18T02:09:21.296Z,0
2017-08-18T02:10:21.320Z,0
2017-08-18T02:11:21.344Z,0
2017-08-18T02:12:21.321Z,0
2017-08-18T02:13:21.305Z,0
2017-08-18T02:14:21.345Z,0
2017-08-18T02:15:21.337Z,0
2017-08-18T02:16:21.331Z,0
2017-08-18T02:17:21.385Z,0
2017-08-18T02:18:21.421Z,0
2017-08-18T02:19:21.340Z,0
2017-08-18T02:20:21.387Z,0
2017-08-18T02:21:21.354Z,0
2017-08-18T02:22:21.363Z,0
2017-08-18T02:23:21.384Z,0
2017-08-18T02:24:21.457Z,0
2017-08-18T02:25:21.373Z,0
2017-08-18T02:26:21.338Z,0
2017-08-18T02:27:21.336Z,0
2017-08-18T02:28:21.333Z,0
2017-08-18T02:29:21.387Z,0
2017-08-18T02:30:21.429Z,0
2017-08-18T02:31:21.336Z,0
2017-08-18T02:32:21.425Z,0
2017-08-18T02:33:21.341Z,0
2017-08-18T02:34:21.335Z,0
2017-08-18T02:35:21.428Z,0
2017-08-18T02:36:21.376Z,0
2017-08-18T02:37:21.316Z,0
2017-08-18T02:38:21.365Z,0
2017-08-18T02:39:21.351Z,0
2017-08-18T02:40:21.364Z,0
2017-08-18T02:41:21.337Z,0
2017-08-18T02:42:21.364Z,0
2017-08-18T02:43:21.344Z,0
2017-08-18T02:44:21.321Z,0
2017-08-18T02:45:21.346Z,0
2017-08-18T02:46:21.343Z,0
2017-08-18T02:47:21.398Z,0
2017-08-18T02:48:21.338Z,0
2017-08-18T02:49:21.368Z,0
2017-08-18T02:50:21.370Z,0
2017-08-18T02:51:21.401Z,0
2017-08-18T02:52:21.341Z,0
2017-08-18T02:53:21.344Z,0
2017-08-18T02:54:21.343Z,0
2017-08-18T02:55:21.347Z,0
2017-08-18T02:56:21.374Z,0
2017-08-18T02:57:21.350Z,0
2017-08-18T02:58:21.448Z,0
2017-08-18T02:59:21.359Z,0
2017-08-18T03:00:21.379Z,0
2017-08-18T03:01:21.411Z,0
2017-08-18T03:02:21.390Z,0
2017-08-18T03:03:21.453Z,0
2017-08-18T03:04:21.385Z,0
2017-08-18T03:05:21.416Z,0
2017-08-18T03:06:21.407Z,0
2017-08-18T03:07:21.358Z,0
2017-08-18T03:08:21.429Z,0
2017-08-18T03:09:21.394Z,0
2017-08-18T03:10:21.412Z,0
2017-08-18T03:11:21.449Z,0
2017-08-18T03:12:21.417Z,0
2017-08-18T03:13:21.360Z,0
2017-08-18T03:14:21.421Z,0
2017-08-18T03:15:21.389Z,0
2017-08-18T03:16:21.457Z,0
2017-08-18T03:17:21.355Z,0
2017-08-18T03:18:21.386Z,0
2017-08-18T03:19:21.414Z,0
2017-08-18T03:20:21.360Z,0
2017-08-18T03:21:21.387Z,0
2017-08-18T03:22:21.419Z,0
2017-08-18T03:23:21.421Z,0
2017-08-18T03:24:21.359Z,0
2017-08-18T03:25:21.366Z,0
2017-08-18T03:26:21.361Z,0
2017-08-18T03:27:21.403Z,0
2017-08-18T03:28:21.399Z,0
2017-08-18T03:29:21.366Z,0
2017-08-18T03:30:21.371Z,0
2017-08-18T03:31:21.442Z,0
2017-08-18T03:32:21.466Z,4
2017-08-18T03:33:21.474Z,4
2017-08-18T03:34:21.398Z,4
2017-08-18T03:35:21.400Z,4
2017-08-18T03:36:21.507Z,4
2017-08-18T03:37:21.403Z,4
2017-08-18T03:38:21.413Z,8
2017-08-18T03:39:21.408Z,8
2017-08-18T03:40:21.450Z,8
2017-08-18T03:41:21.490Z,12
2017-08-18T03:42:21.474Z,12
2017-08-18T03:43:21.431Z,16
2017-08-18T03:44:21.469Z,16
2017-08-18T03:45:21.407Z,20
2017-08-18T03:46:21.476Z,24
2017-08-18T03:47:21.454Z,28
2017-08-18T03:48:21.403Z,28
2017-08-18T03:49:21.395Z,36
2017-08-18T03:50:21.433Z,44
2017-08-18T03:51:21.406Z,52
2017-08-18T03:52:21.399Z,56
2017-08-18T03:53:21.357Z,64
2017-08-18T03:54:21.378Z,76
2017-08-18T03:55:21.408Z,92
2017-08-18T03:56:21.405Z,100
2017-08-18T03:57:21.413Z,116
2017-08-18T03:58:21.480Z,136
2017-08-18T03:59:21.425Z,152
2017-08-18T04:00:21.417Z,172
2017-08-18T04:01:21.385Z,192
2017-08-18T04:02:21.388Z,220
2017-08-18T04:03:21.390Z,252
2017-08-18T04:04:21.486Z,288
2017-08-18T04:05:21.429Z,336
2017-08-18T04:06:21.443Z,396
2017-08-18T04:07:21.471Z,452
2017-08-18T04:08:21.389Z,500
2017-08-18T04:09:21.413Z,528
2017-08-18T04:10:21.449Z,556
2017-08-18T04:11:21.415Z,604
2017-08-18T04:12:21.472Z,676
2017-08-18T04:13:21.389Z,764
2017-08-18T04:14:21.390Z,872
2017-08-18T04:15:21.417Z,992
2017-08-18T04:16:21.450Z,1132
2017-08-18T04:17:21.424Z,1252
2017-08-18T04:18:21.433Z,1368
2017-08-18T04:19:21.397Z,1460
2017-08-18T04:20:21.461Z,1532
2017-08-18T04:21:21.400Z,1564
2017-08-18T04:22:21.472Z,1564
2017-08-18T04:23:21.469Z,1556
2017-08-18T04:24:21.404Z,1552
2017-08-18T04:25:21.467Z,1556
2017-08-18T04:26:21.459Z,1580
2017-08-18T04:27:21.422Z,1644
2017-08-18T04:28:21.477Z,1752
2017-08-18T04:29:21.408Z,1868
2017-08-18T04:30:21.460Z,2024
2017-08-18T04:31:21.462Z,2232
2017-08-18T04:32:21.474Z,2508
2017-08-18T04:33:21.444Z,2784
2017-08-18T04:34:21.468Z,3048
2017-08-18T04:35:21.411Z,3272
2017-08-18T04:36:21.429Z,3412
2017-08-18T04:37:21.441Z,3400
2017-08-18T04:38:21.432Z,3264
2017-08-18T04:39:21.431Z,3104
2017-08-18T04:40:21.442Z,2952
2017-08-18T04:41:21.414Z,2804
2017-08-18T04:42:21.502Z,2652
2017-08-18T04:43:21.476Z,2568
2017-08-18T04:44:21.412Z,2524
2017-08-18T04:45:21.474Z,2616
2017-08-18T04:46:21.439Z,2796
2017-08-18T04:47:21.418Z,3056
2017-08-18T04:48:21.452Z,3408
2017-08-18T04:49:21.475Z,3876
2017-08-18T04:50:21.450Z,4288
2017-08-18T04:51:21.418Z,4656
2017-08-18T04:52:21.419Z,4940
2017-08-18T04:53:21.423Z,5224
2017-08-18T04:54:21.456Z,5472
2017-08-18T04:55:21.420Z,5676
2017-08-18T04:56:21.516Z,5800
2017-08-18T04:57:21.482Z,5920
2017-08-18T04:58:21.624Z,6020
2017-08-18T04:59:21.496Z,6168
2017-08-18T05:00:21.519Z,6368
2017-08-18T05:01:21.481Z,6604
2017-08-18T05:02:21.429Z,6940
2017-08-18T05:03:21.424Z,7412
2017-08-18T05:04:21.518Z,7924
2017-08-18T05:05:21.450Z,8360
2017-08-18T05:06:21.536Z,8676
2017-08-18T05:07:21.445Z,8904
2017-08-18T05:08:21.485Z,9112
2017-08-18T05:09:21.515Z,9300
2017-08-18T05:10:21.503Z,9496
2017-08-18T05:11:21.516Z,9680
2017-08-18T05:12:21.461Z,9748
2017-08-18T05:13:21.495Z,9768
2017-08-18T05:14:21.518Z,9688
2017-08-18T05:15:21.486Z,9460
2017-08-18T05:16:21.428Z,9108
2017-08-18T05:17:21.452Z,8664
2017-08-18T05:18:21.449Z,8268
2017-08-18T05:19:21.524Z,8308
2017-08-18T05:20:21.424Z,8760
2017-08-18T05:21:21.452Z,9500
2017-08-18T05:22:21.454Z,9788
2017-08-18T05:23:21.490Z,10280
2017-08-18T05:24:21.497Z,10544
2017-08-18T05:25:21.456Z,10544
2017-08-18T05:26:21.492Z,10564
2017-08-18T05:27:21.427Z,10504
2017-08-18T05:28:21.426Z,10320
2017-08-18T05:29:21.457Z,9956
2017-08-18T05:30:21.456Z,9508
2017-08-18T05:31:21.457Z,9012
2017-08-18T05:32:21.494Z,8420
2017-08-18T05:33:21.460Z,7900
2017-08-18T05:34:21.462Z,7464
2017-08-18T05:35:21.457Z,7000
2017-08-18T05:36:21.459Z,6556
2017-08-18T05:37:21.474Z,6168
2017-08-18T05:38:21.464Z,5940
2017-08-18T05:39:21.535Z,5936
2017-08-18T05:40:21.481Z,6144
2017-08-18T05:41:21.468Z,6472
2017-08-18T05:42:21.447Z,6804
2017-08-18T05:43:21.470Z,6828
2017-08-18T05:44:21.520Z,7372
2017-08-18T05:45:21.448Z,7560
2017-08-18T05:46:21.487Z,7712
2017-08-18T05:47:21.459Z,8104
2017-08-18T05:48:21.415Z,7620
2017-08-18T05:49:21.464Z,7432
2017-08-18T05:50:21.473Z,7076
2017-08-18T05:51:21.469Z,7380
2017-08-18T05:52:21.464Z,6360
2017-08-18T05:53:21.400Z,6576
2017-08-18T05:54:21.476Z,5928
2017-08-18T05:55:21.407Z,5580
2017-08-18T05:56:21.429Z,5780
2017-08-18T05:57:21.451Z,6160
2017-08-18T05:58:21.431Z,6140
2017-08-18T05:59:21.422Z,6056
2017-08-18T06:00:21.487Z,5868
2017-08-18T06:01:21.424Z,5448
2017-08-18T06:02:21.476Z,5056
2017-08-18T06:03:21.492Z,4844
2017-08-18T06:04:21.482Z,4712
2017-08-18T06:05:21.464Z,4560
2017-08-18T06:06:21.479Z,4204
2017-08-18T06:07:21.453Z,3776
2017-08-18T06:08:21.456Z,3640
2017-08-18T06:09:21.441Z,3592
2017-08-18T06:10:21.440Z,3736
2017-08-18T06:11:21.458Z,4304
2017-08-18T06:12:21.473Z,5356
2017-08-18T06:13:21.475Z,5764
2017-08-18T06:14:21.456Z,6036
2017-08-18T06:15:21.442Z,5720
2017-08-18T06:16:21.459Z,5764
2017-08-18T06:17:21.500Z,5768
2017-08-18T06:18:21.543Z,4912
2017-08-18T06:19:21.523Z,5144
2017-08-18T06:20:21.490Z,5764
2017-08-18T06:21:21.486Z,5680
2017-08-18T06:22:21.489Z,5568
2017-08-18T06:23:21.489Z,6840
2017-08-18T06:24:21.524Z,6752
2017-08-18T06:25:21.459Z,8060
2017-08-18T06:26:21.458Z,9040
2017-08-18T06:27:21.460Z,9412
2017-08-18T06:28:21.492Z,10352
2017-08-18T06:29:21.534Z,11312
2017-08-18T06:30:21.465Z,11224
2017-08-18T06:31:21.545Z,11604
2017-08-18T06:32:21.535Z,11428
2017-08-18T06:33:21.527Z,10948
2017-08-18T06:34:21.528Z,10396
2017-08-18T06:35:21.499Z,10048
2017-08-18T06:36:21.532Z,9604
2017-08-18T06:37:21.466Z,9148
2017-08-18T06:38:21.537Z,8768
2017-08-18T06:39:21.573Z,8668
2017-08-18T06:40:21.578Z,9184
2017-08-18T06:41:21.571Z,10332
2017-08-18T06:42:21.512Z,11780
2017-08-18T06:43:21.481Z,13040
2017-08-18T06:44:21.521Z,13900
2017-08-18T06:45:21.539Z,14540
2017-08-18T06:46:21.517Z,14476
2017-08-18T06:47:21.518Z,13380
2017-08-18T06:48:21.548Z,12276
2017-08-18T06:49:21.490Z,11552
2017-08-18T06:50:21.520Z,10328
2017-08-18T06:51:21.544Z,8356
2017-08-18T06:52:21.528Z,7688
2017-08-18T06:53:21.521Z,8324
2017-08-18T06:54:21.525Z,8752
2017-08-18T06:55:21.492Z,9204
2017-08-18T06:56:21.487Z,9472
2017-08-18T06:57:21.520Z,8876
2017-08-18T06:58:21.489Z,8240
2017-08-18T06:59:21.493Z,7748
2017-08-18T07:00:21.587Z,6696
2017-08-18T07:01:21.566Z,6560
2017-08-18T07:02:21.496Z,5652
2017-08-18T07:03:21.494Z,6360
2017-08-18T07:04:21.493Z,7128
2017-08-18T07:05:21.590Z,7152
2017-08-18T07:06:21.564Z,7080
2017-08-18T07:07:21.568Z,6568
2017-08-18T07:08:21.531Z,6128
2017-08-18T07:09:21.534Z,6120
2017-08-18T07:10:21.554Z,5908
2017-08-18T07:11:21.502Z,7000
2017-08-18T07:12:21.524Z,8936
2017-08-18T07:13:21.538Z,11064
2017-08-18T07:14:21.504Z,10500
2017-08-18T07:15:21.576Z,9512
2017-08-18T07:16:21.506Z,10408
2017-08-18T07:17:21.504Z,10264
2017-08-18T07:18:22.629Z,9328
2017-08-18T07:20:21.543Z,11328
2017-08-18T07:21:21.530Z,11620
2017-08-18T07:22:21.598Z,11508
2017-08-18T07:23:21.506Z,13380
2017-08-18T07:24:21.567Z,16636
2017-08-18T07:25:21.510Z,17588
2017-08-18T07:26:21.539Z,17116
2017-08-18T07:27:21.541Z,15644
2017-08-18T07:28:21.570Z,12876
2017-08-18T07:29:21.582Z,10676
2017-08-18T07:30:21.513Z,10076
2017-08-18T07:31:21.535Z,9512
2017-08-18T07:32:21.586Z,8908
2017-08-18T07:33:21.606Z,8564
2017-08-18T07:34:21.544Z,7308
2017-08-18T07:35:21.510Z,6596
2017-08-18T07:36:21.547Z,6452
2017-08-18T07:37:21.517Z,8616
2017-08-18T07:38:21.578Z,9912
2017-08-18T07:39:21.603Z,10812
2017-08-18T07:40:21.601Z,11328
2017-08-18T07:41:21.613Z,11112
2017-08-18T07:42:21.517Z,9340
2017-08-18T07:43:21.512Z,7560
2017-08-18T07:44:21.579Z,7888
2017-08-18T07:45:21.518Z,9680
2017-08-18T07:46:21.582Z,9472
2017-08-18T07:47:21.575Z,8604
2017-08-18T07:48:21.492Z,7296
2017-08-18T07:49:21.530Z,7480
2017-08-18T07:50:21.542Z,9948
2017-08-18T07:51:21.517Z,11740
2017-08-18T07:52:21.540Z,12192
2017-08-18T07:53:21.541Z,12164
2017-08-18T07:54:21.731Z,12856
2017-08-18T07:55:21.497Z,14096
2017-08-18T07:56:21.508Z,14236
2017-08-18T07:57:21.520Z,12372
2017-08-18T07:58:21.496Z,11260
2017-08-18T07:59:21.536Z,9456
2017-08-18T08:00:21.525Z,7764
2017-08-18T08:01:21.538Z,7296
2017-08-18T08:02:21.592Z,7848
2017-08-18T08:03:21.554Z,7684
2017-08-18T08:04:21.536Z,6904
2017-08-18T08:05:21.550Z,6960
2017-08-18T08:06:21.538Z,7208
2017-08-18T08:07:21.565Z,7704
2017-08-18T08:08:21.532Z,11500
2017-08-18T08:09:21.578Z,11392
2017-08-18T08:10:21.625Z,10428
2017-08-18T08:11:21.532Z,12644
2017-08-18T08:12:21.586Z,14256
2017-08-18T08:13:21.557Z,12256
2017-08-18T08:14:21.531Z,10580
2017-08-18T08:15:21.597Z,10488
2017-08-18T08:16:21.592Z,10320
2017-08-18T08:17:21.560Z,9684
2017-08-18T08:18:21.610Z,9536
2017-08-18T08:19:21.559Z,8792
2017-08-18T08:20:21.599Z,7880
2017-08-18T08:21:21.543Z,7396
2017-08-18T08:22:21.568Z,7204
2017-08-18T08:23:21.653Z,7088
2017-08-18T08:24:21.613Z,7892
2017-08-18T08:25:21.576Z,9036
2017-08-18T08:26:21.565Z,8976
2017-08-18T08:27:21.609Z,8564
2017-08-18T08:28:21.606Z,8712
2017-08-18T08:29:21.634Z,9188
2017-08-18T08:30:21.573Z,8968
2017-08-18T08:31:21.551Z,7904
2017-08-18T08:32:21.637Z,7980
2017-08-18T08:33:21.587Z,8808
2017-08-18T08:34:21.598Z,8776
2017-08-18T08:35:21.586Z,7168
2017-08-18T08:36:21.576Z,4764
2017-08-18T08:37:21.586Z,3216
2017-08-18T08:38:21.553Z,3408
2017-08-18T08:39:21.549Z,3784
2017-08-18T08:40:21.642Z,4740
2017-08-18T08:41:21.584Z,8096
2017-08-18T08:42:21.587Z,10920
2017-08-18T08:43:21.587Z,9972
2017-08-18T08:44:21.557Z,8128
2017-08-18T08:45:21.608Z,6592
2017-08-18T08:46:21.585Z,6760
2017-08-18T08:47:21.553Z,7240
2017-08-18T08:48:21.650Z,5128
2017-08-18T08:49:21.556Z,3976
2017-08-18T08:50:21.584Z,4220
2017-08-18T08:51:21.567Z,4520
2017-08-18T08:52:21.593Z,5000
2017-08-18T08:53:21.558Z,6204
2017-08-18T08:54:21.600Z,7040
2017-08-18T08:55:21.593Z,7380
2017-08-18T08:56:21.580Z,7652
2017-08-18T08:57:21.587Z,7492
2017-08-18T08:58:21.580Z,6880
2017-08-18T08:59:21.618Z,6032
2017-08-18T09:00:21.637Z,5752
2017-08-18T09:01:21.597Z,5732
2017-08-18T09:02:21.598Z,5360
2017-08-18T09:03:21.571Z,4968
2017-08-18T09:04:21.628Z,4900
2017-08-18T09:05:21.603Z,4948
2017-08-18T09:06:21.653Z,4788
2017-08-18T09:07:21.601Z,4748
2017-08-18T09:08:21.641Z,4856
2017-08-18T09:09:21.654Z,5024
2017-08-18T09:10:21.589Z,5148
2017-08-18T09:11:21.604Z,4848
2017-08-18T09:12:21.626Z,4896
2017-08-18T09:13:21.631Z,5448
2017-08-18T09:14:21.626Z,6036
2017-08-18T09:15:21.572Z,5876
2017-08-18T09:16:21.579Z,5964
2017-08-18T09:17:21.628Z,6856
2017-08-18T09:18:21.568Z,8192
2017-08-18T09:19:21.611Z,8660
2017-08-18T09:20:21.561Z,8564
2017-08-18T09:21:21.563Z,8552
2017-08-18T09:22:21.595Z,7872
2017-08-18T09:23:21.602Z,7156
2017-08-18T09:24:21.630Z,7512
2017-08-18T09:25:21.612Z,9204
2017-08-18T09:26:21.629Z,11548
2017-08-18T09:27:21.567Z,11988
2017-08-18T09:28:21.583Z,11052
2017-08-18T09:29:21.678Z,11004
2017-08-18T09:30:21.651Z,11656
2017-08-18T09:31:21.636Z,14536
2017-08-18T09:32:21.675Z,18312
2017-08-18T09:33:21.621Z,19516
2017-08-18T09:34:21.617Z,19152
2017-08-18T09:35:21.643Z,18492
2017-08-18T09:36:21.671Z,19792
2017-08-18T09:37:21.592Z,22048
2017-08-18T09:38:21.689Z,24064
2017-08-18T09:39:21.619Z,26048
2017-08-18T09:40:21.678Z,28480
2017-08-18T09:41:21.589Z,30560
2017-08-18T09:42:21.592Z,30944
2017-08-18T09:43:21.612Z,29216
2017-08-18T09:44:21.656Z,26144
2017-08-18T09:45:21.651Z,22816
2017-08-18T09:46:21.651Z,20732
2017-08-18T09:47:21.649Z,20436
2017-08-18T09:48:21.679Z,19908
2017-08-18T09:49:21.654Z,19240
2017-08-18T09:50:21.774Z,19276
2017-08-18T09:51:21.629Z,19500
2017-08-18T09:52:21.617Z,19272
2017-08-18T09:53:21.652Z,19132
2017-08-18T09:54:21.654Z,19432
2017-08-18T09:55:21.598Z,20952
2017-08-18T09:56:21.622Z,22752
2017-08-18T09:57:21.692Z,23648
2017-08-18T09:58:21.602Z,23776
2017-08-18T09:59:21.699Z,23552
2017-08-18T10:00:21.599Z,20776
2017-08-18T10:01:21.672Z,19240
2017-08-18T10:02:21.624Z,19584
2017-08-18T10:03:21.631Z,20000
2017-08-18T10:04:21.606Z,20100
2017-08-18T10:05:21.632Z,19572
2017-08-18T10:06:21.697Z,18552
2017-08-18T10:07:21.692Z,17956
2017-08-18T10:08:21.643Z,18240
2017-08-18T10:09:21.636Z,18148
2017-08-18T10:10:21.627Z,19444
2017-08-18T10:11:21.630Z,17620
2017-08-18T10:12:21.672Z,19680
2017-08-18T10:13:21.661Z,19860
2017-08-18T10:14:21.705Z,19548
2017-08-18T10:15:21.691Z,18640
2017-08-18T10:16:21.638Z,16736
2017-08-18T10:17:21.645Z,17208
2017-08-18T10:18:21.640Z,17584
2017-08-18T10:19:21.704Z,18348
2017-08-18T10:20:21.677Z,19964
2017-08-18T10:21:21.648Z,22752
2017-08-18T10:22:21.611Z,25312
2017-08-18T10:23:21.670Z,26208
2017-08-18T10:24:21.709Z,28256
2017-08-18T10:25:21.618Z,29568
2017-08-18T10:26:21.677Z,31776
2017-08-18T10:27:21.652Z,33920
2017-08-18T10:28:21.692Z,37184
2017-08-18T10:29:21.670Z,40448
2017-08-18T10:30:21.689Z,43040
2017-08-18T10:31:21.684Z,44288
2017-08-18T10:32:21.694Z,44992
2017-08-18T10:33:21.676Z,44640
2017-08-18T10:34:21.690Z,43936
2017-08-18T10:35:21.713Z,44704
2017-08-18T10:36:21.649Z,47968
2017-08-18T10:37:21.620Z,51904
2017-08-18T10:38:21.694Z,54528
2017-08-18T10:39:21.714Z,59200
2017-08-18T10:40:21.703Z,59296
2017-08-18T10:41:21.662Z,60608
2017-08-18T10:42:21.625Z,64352
2017-08-18T10:43:21.655Z,68480
2017-08-18T10:44:21.656Z,70592
2017-08-18T10:45:21.648Z,67456
2017-08-18T10:46:21.722Z,66240
2017-08-18T10:47:21.728Z,59200
2017-08-18T10:48:21.648Z,56800
2017-08-18T10:49:21.637Z,62816
2017-08-18T10:50:21.773Z,58368
2017-08-18T10:51:21.605Z,57728
2017-08-18T10:52:21.630Z,57632
2017-08-18T10:53:21.624Z,60672
2017-08-18T10:54:21.642Z,63744
2017-08-18T10:55:21.626Z,66752
2017-08-18T10:56:21.630Z,68928
2017-08-18T10:57:21.637Z,69952
2017-08-18T10:58:21.809Z,70336
2017-08-18T10:59:21.665Z,66496
2017-08-18T11:00:21.670Z,66560
2017-08-18T11:01:21.633Z,67104
2017-08-18T11:02:21.723Z,65280
2017-08-18T11:03:21.634Z,63200
2017-08-18T11:04:21.728Z,62560
2017-08-18T11:05:21.672Z,59776
2017-08-18T11:06:21.698Z,62400
2017-08-18T11:07:21.632Z,62752
2017-08-18T11:08:21.727Z,59136
2017-08-18T11:09:21.694Z,61472
2017-08-18T11:10:21.701Z,62720
2017-08-18T11:11:21.662Z,64032
2017-08-18T11:12:21.667Z,67328
2017-08-18T11:13:21.660Z,63072
2017-08-18T11:14:21.659Z,64192
2017-08-18T11:15:21.637Z,59072
2017-08-18T11:16:21.700Z,57248
2017-08-18T11:17:21.642Z,56640
2017-08-18T11:18:21.637Z,57024
2017-08-18T11:19:21.790Z,58688
2017-08-18T11:20:21.664Z,59456
2017-08-18T11:21:21.642Z,62048
2017-08-18T11:22:21.645Z,63008
2017-08-18T11:23:21.661Z,58368
2017-08-18T11:24:21.658Z,57632
2017-08-18T11:25:21.636Z,54656
2017-08-18T11:26:21.662Z,52224
2017-08-18T11:27:21.674Z,48480
2017-08-18T11:28:21.679Z,48064
2017-08-18T11:29:21.686Z,47808
2017-08-18T11:30:21.639Z,47936
2017-08-18T11:31:21.709Z,48320
2017-08-18T11:32:21.647Z,48800
2017-08-18T11:33:21.672Z,50560
2017-08-18T11:34:21.672Z,52704
2017-08-18T11:35:21.706Z,55648
2017-08-18T11:36:21.674Z,58656
2017-08-18T11:37:21.677Z,58528
2017-08-18T11:38:21.676Z,57824
2017-08-18T11:39:21.665Z,56928
2017-08-18T11:40:21.681Z,54464
2017-08-18T11:41:21.677Z,49472
2017-08-18T11:42:21.634Z,45312
2017-08-18T11:43:21.656Z,43776
2017-08-18T11:44:21.676Z,43584
2017-08-18T11:45:21.613Z,44864
2017-08-18T11:46:21.659Z,45120
2017-08-18T11:47:21.648Z,47072
2017-08-18T11:48:21.657Z,48416
2017-08-18T11:49:21.686Z,47392
2017-08-18T11:50:21.688Z,45664
2017-08-18T11:51:21.692Z,43552
2017-08-18T11:52:21.753Z,41600
2017-08-18T11:53:21.665Z,40160
2017-08-18T11:54:21.665Z,38880
2017-08-18T11:55:21.668Z,38624
2017-08-18T11:56:21.673Z,39552
2017-08-18T11:57:21.731Z,41792
2017-08-18T11:58:21.674Z,44736
2017-08-18T11:59:21.704Z,47392
2017-08-18T12:00:21.710Z,49248
2017-08-18T12:01:21.770Z,50272
2017-08-18T12:02:21.691Z,50944
2017-08-18T12:03:21.699Z,51904
2017-08-18T12:04:21.735Z,53920
2017-08-18T12:05:21.673Z,55584
2017-08-18T12:06:21.687Z,55680
2017-08-18T12:07:21.699Z,54208
2017-08-18T12:08:21.734Z,52192
2017-08-18T12:09:21.647Z,50176
2017-08-18T12:10:21.701Z,49120
2017-08-18T12:11:21.672Z,48832
2017-08-18T12:12:21.701Z,47520
2017-08-18T12:13:21.645Z,45632
2017-08-18T12:14:21.673Z,43584
2017-08-18T12:15:21.680Z,41472
2017-08-18T12:16:21.702Z,40512
2017-08-18T12:17:21.677Z,40736
2017-08-18T12:18:21.657Z,41824
2017-08-18T12:19:21.680Z,42976
2017-08-18T12:20:21.780Z,43744
2017-08-18T12:21:21.685Z,44448
2017-08-18T12:22:21.772Z,45088
2017-08-18T12:23:21.743Z,44736
2017-08-18T12:24:21.783Z,42464
2017-08-18T12:25:21.709Z,40224
2017-08-18T12:26:21.759Z,38976
2017-08-18T12:27:21.718Z,39200
2017-08-18T12:28:21.694Z,40224
2017-08-18T12:29:21.687Z,41760
2017-08-18T12:30:21.718Z,43264
2017-08-18T12:31:21.714Z,43680
2017-08-18T12:32:21.749Z,43104
2017-08-18T12:33:21.725Z,41760
2017-08-18T12:34:21.779Z,40736
2017-08-18T12:35:21.756Z,40096
2017-08-18T12:36:21.696Z,39136
2017-08-18T12:37:21.755Z,37024
2017-08-18T12:38:21.790Z,34496
2017-08-18T12:39:21.749Z,33760
2017-08-18T12:40:21.696Z,34112
2017-08-18T12:41:21.786Z,33888
2017-08-18T12:42:21.732Z,32512
2017-08-18T12:43:21.785Z,30944
2017-08-18T12:44:21.699Z,29952
2017-08-18T12:45:21.788Z,29824
2017-08-18T12:46:21.702Z,30432
2017-08-18T12:47:21.734Z,31232
2017-08-18T12:48:21.731Z,32320
2017-08-18T12:49:21.720Z,34144
2017-08-18T12:51:21.786Z,40960
2017-08-18T12:52:21.706Z,43264
2017-08-18T12:53:21.764Z,42976
2017-08-18T12:54:21.739Z,40672
2017-08-18T12:55:21.724Z,37600
2017-08-18T12:56:21.792Z,35200
2017-08-18T12:57:21.760Z,33696
2017-08-18T12:58:21.763Z,32096
2017-08-18T12:59:21.722Z,30208
2017-08-18T13:00:21.703Z,28384
2017-08-18T13:01:21.734Z,29120
2017-08-18T13:02:21.762Z,30560
2017-08-18T13:03:21.723Z,31392
2017-08-18T13:04:21.761Z,31552
2017-08-18T13:05:21.760Z,31744
2017-08-18T13:06:21.703Z,32064
2017-08-18T13:07:21.736Z,31744
2017-08-18T13:08:21.776Z,32864
2017-08-18T13:09:21.779Z,34624
2017-08-18T13:10:21.769Z,36480
2017-08-18T13:11:21.712Z,37664
2017-08-18T13:12:21.738Z,39072
2017-08-18T13:13:21.812Z,41056
2017-08-18T13:14:21.775Z,42496
2017-08-18T13:15:21.743Z,43872
2017-08-18T13:16:21.749Z,44320
2017-08-18T13:17:21.807Z,44192
2017-08-18T13:18:21.747Z,43360
2017-08-18T13:19:21.777Z,42368
2017-08-18T13:20:21.771Z,41472
2017-08-18T13:21:21.719Z,41376
2017-08-18T13:22:21.811Z,40736
2017-08-18T13:23:21.777Z,39904
2017-08-18T13:24:21.760Z,39424
2017-08-18T13:25:21.816Z,39072
2017-08-18T13:26:21.817Z,37984
2017-08-18T13:27:21.818Z,36768
2017-08-18T13:28:21.814Z,35552
2017-08-18T13:29:21.716Z,34272
2017-08-18T13:30:21.738Z,33792
2017-08-18T13:31:21.697Z,34304
2017-08-18T13:32:21.736Z,35648
2017-08-18T13:33:21.683Z,35872